sensor_id;sensor_type;location;lat;lon;timestamp;P1;durP1;ratioP1;P2;durP2;ratioP2
25938;SDS011;13739;51.172;4.466;2022-08-19T00:02:29;32.80;;;18.15;;
25938;SDS011;13739;51.172;4.466;2022-08-19T00:04:57;32.70;;;17.65;;
25938;SDS011;13739;51.172;4.466;2022-08-19T00:07:26;29.92;;;16.98;;
25938;SDS011;13739;51.172;4.466;2022-08-19T00:09:52;32.25;;;17.02;;
25938;SDS011;13739;51.172;4.466;2022-08-19T00:12:18;35.55;;;18.67;;
25938;SDS011;13739;51.172;4.466;2022-08-19T00:14:44;31.90;;;17.75;;
25938;SDS011;13739;51.172;4.466;2022-08-19T00:17:11;36.50;;;19.60;;
25938;SDS011;13739;51.172;4.466;2022-08-19T00:19:37;34.38;;;18.67;;
25938;SDS011;13739;51.172;4.466;2022-08-19T00:22:03;37.00;;;17.92;;
25938;SDS011;13739;51.172;4.466;2022-08-19T00:24:31;38.78;;;19.05;;
25938;SDS011;13739;51.172;4.466;2022-08-19T00:26:59;36.47;;;19.42;;
25938;SDS011;13739;51.172;4.466;2022-08-19T00:29:26;35.58;;;18.15;;
25938;SDS011;13739;51.172;4.466;2022-08-19T00:31:53;38.35;;;19.58;;
25938;SDS011;13739;51.172;4.466;2022-08-19T00:34:20;42.65;;;20.42;;
25938;SDS011;13739;51.172;4.466;2022-08-19T00:36:46;40.17;;;20.42;;
25938;SDS011;13739;51.172;4.466;2022-08-19T00:39:13;40.50;;;19.50;;
25938;SDS011;13739;51.172;4.466;2022-08-19T00:41:40;39.08;;;20.17;;
25938;SDS011;13739;51.172;4.466;2022-08-19T00:44:09;37.15;;;19.63;;
25938;SDS011;13739;51.172;4.466;2022-08-19T00:46:42;48.42;;;22.50;;
25938;SDS011;13739;51.172;4.466;2022-08-19T00:49:18;41.75;;;20.65;;
25938;SDS011;13739;51.172;4.466;2022-08-19T00:51:48;47.25;;;23.30;;
25938;SDS011;13739;51.172;4.466;2022-08-19T00:54:18;43.05;;;20.90;;
25938;SDS011;13739;51.172;4.466;2022-08-19T00:56:48;43.83;;;21.90;;
25938;SDS011;13739;51.172;4.466;2022-08-19T00:59:15;40.00;;;21.33;;
25938;SDS011;13739;51.172;4.466;2022-08-19T01:01:43;41.42;;;20.73;;
25938;SDS011;13739;51.172;4.466;2022-08-19T01:04:10;39.15;;;20.15;;
25938;SDS011;13739;51.172;4.466;2022-08-19T01:06:36;38.85;;;20.17;;
25938;SDS011;13739;51.172;4.466;2022-08-19T01:09:04;42.83;;;21.13;;
25938;SDS011;13739;51.172;4.466;2022-08-19T01:11:31;38.60;;;21.25;;
25938;SDS011;13739;51.172;4.466;2022-08-19T01:14:01;35.75;;;19.10;;
25938;SDS011;13739;51.172;4.466;2022-08-19T01:16:28;38.20;;;20.20;;
25938;SDS011;13739;51.172;4.466;2022-08-19T01:18:55;39.35;;;20.73;;
25938;SDS011;13739;51.172;4.466;2022-08-19T01:21:26;39.42;;;21.17;;
25938;SDS011;13739;51.172;4.466;2022-08-19T01:23:59;40.45;;;20.45;;
25938;SDS011;13739;51.172;4.466;2022-08-19T01:26:26;42.97;;;22.02;;
25938;SDS011;13739;51.172;4.466;2022-08-19T01:28:56;41.53;;;20.90;;
25938;SDS011;13739;51.172;4.466;2022-08-19T01:31:24;39.53;;;20.15;;
25938;SDS011;13739;51.172;4.466;2022-08-19T01:33:56;43.25;;;21.30;;
25938;SDS011;13739;51.172;4.466;2022-08-19T01:36:25;40.85;;;20.98;;
25938;SDS011;13739;51.172;4.466;2022-08-19T01:38:54;39.60;;;20.25;;
25938;SDS011;13739;51.172;4.466;2022-08-19T01:41:20;41.35;;;19.42;;
25938;SDS011;13739;51.172;4.466;2022-08-19T01:43:48;39.63;;;19.73;;
25938;SDS011;13739;51.172;4.466;2022-08-19T01:46:15;37.97;;;19.23;;
25938;SDS011;13739;51.172;4.466;2022-08-19T01:48:41;43.40;;;20.42;;
25938;SDS011;13739;51.172;4.466;2022-08-19T01:51:08;41.67;;;19.98;;
25938;SDS011;13739;51.172;4.466;2022-08-19T01:53:36;38.28;;;19.02;;
25938;SDS011;13739;51.172;4.466;2022-08-19T01:56:02;40.97;;;20.40;;
25938;SDS011;13739;51.172;4.466;2022-08-19T01:58:41;38.72;;;19.90;;
25938;SDS011;13739;51.172;4.466;2022-08-19T02:01:12;40.67;;;19.55;;
25938;SDS011;13739;51.172;4.466;2022-08-19T02:03:38;38.95;;;19.33;;
25938;SDS011;13739;51.172;4.466;2022-08-19T02:06:08;41.63;;;19.75;;
25938;SDS011;13739;51.172;4.466;2022-08-19T02:08:34;39.85;;;20.52;;
25938;SDS011;13739;51.172;4.466;2022-08-19T02:11:02;45.60;;;20.83;;
25938;SDS011;13739;51.172;4.466;2022-08-19T02:13:28;43.78;;;22.30;;
25938;SDS011;13739;51.172;4.466;2022-08-19T02:15:54;42.35;;;22.20;;
25938;SDS011;13739;51.172;4.466;2022-08-19T02:18:20;40.22;;;20.58;;
25938;SDS011;13739;51.172;4.466;2022-08-19T02:20:46;45.50;;;20.63;;
25938;SDS011;13739;51.172;4.466;2022-08-19T02:23:14;41.20;;;20.33;;
25938;SDS011;13739;51.172;4.466;2022-08-19T02:25:44;41.05;;;20.67;;
25938;SDS011;13739;51.172;4.466;2022-08-19T02:28:12;41.30;;;20.25;;
25938;SDS011;13739;51.172;4.466;2022-08-19T02:30:38;46.47;;;21.63;;
25938;SDS011;13739;51.172;4.466;2022-08-19T02:33:05;43.80;;;21.17;;
25938;SDS011;13739;51.172;4.466;2022-08-19T02:35:31;42.78;;;20.48;;
25938;SDS011;13739;51.172;4.466;2022-08-19T02:38:00;40.15;;;21.58;;
25938;SDS011;13739;51.172;4.466;2022-08-19T02:40:48;45.42;;;21.55;;
25938;SDS011;13739;51.172;4.466;2022-08-19T02:43:18;48.10;;;22.58;;
25938;SDS011;13739;51.172;4.466;2022-08-19T02:45:46;43.78;;;22.05;;
25938;SDS011;13739;51.172;4.466;2022-08-19T02:48:16;46.22;;;22.65;;
25938;SDS011;13739;51.172;4.466;2022-08-19T02:50:43;45.20;;;21.63;;
25938;SDS011;13739;51.172;4.466;2022-08-19T02:53:10;51.22;;;22.55;;
25938;SDS011;13739;51.172;4.466;2022-08-19T02:55:35;44.65;;;21.85;;
25938;SDS011;13739;51.172;4.466;2022-08-19T02:58:07;49.85;;;23.67;;
25938;SDS011;13739;51.172;4.466;2022-08-19T03:00:33;47.78;;;21.60;;
25938;SDS011;13739;51.172;4.466;2022-08-19T03:03:00;46.70;;;22.15;;
25938;SDS011;13739;51.172;4.466;2022-08-19T03:05:25;48.95;;;20.85;;
25938;SDS011;13739;51.172;4.466;2022-08-19T03:07:52;46.97;;;21.33;;
25938;SDS011;13739;51.172;4.466;2022-08-19T03:10:18;49.65;;;21.75;;
25938;SDS011;13739;51.172;4.466;2022-08-19T03:12:44;43.63;;;20.58;;
25938;SDS011;13739;51.172;4.466;2022-08-19T03:15:11;46.33;;;21.55;;
25938;SDS011;13739;51.172;4.466;2022-08-19T03:17:37;46.63;;;21.85;;
25938;SDS011;13739;51.172;4.466;2022-08-19T03:20:03;51.15;;;22.58;;
25938;SDS011;13739;51.172;4.466;2022-08-19T03:22:29;43.95;;;20.58;;
25938;SDS011;13739;51.172;4.466;2022-08-19T03:24:55;43.53;;;21.50;;
25938;SDS011;13739;51.172;4.466;2022-08-19T03:27:21;46.17;;;20.27;;
25938;SDS011;13739;51.172;4.466;2022-08-19T03:29:47;42.85;;;20.80;;
25938;SDS011;13739;51.172;4.466;2022-08-19T03:32:12;42.22;;;19.48;;
25938;SDS011;13739;51.172;4.466;2022-08-19T03:34:38;38.45;;;19.08;;
25938;SDS011;13739;51.172;4.466;2022-08-19T03:37:06;39.25;;;18.80;;
25938;SDS011;13739;51.172;4.466;2022-08-19T03:39:35;41.08;;;18.85;;
25938;SDS011;13739;51.172;4.466;2022-08-19T03:42:03;36.28;;;18.48;;
25938;SDS011;13739;51.172;4.466;2022-08-19T03:44:29;39.45;;;18.08;;
25938;SDS011;13739;51.172;4.466;2022-08-19T03:46:56;35.72;;;16.95;;
25938;SDS011;13739;51.172;4.466;2022-08-19T03:49:23;38.35;;;18.00;;
25938;SDS011;13739;51.172;4.466;2022-08-19T03:51:53;37.13;;;18.05;;
25938;SDS011;13739;51.172;4.466;2022-08-19T03:54:21;37.65;;;17.10;;
25938;SDS011;13739;51.172;4.466;2022-08-19T03:56:48;35.45;;;16.60;;
25938;SDS011;13739;51.172;4.466;2022-08-19T03:59:18;40.17;;;16.90;;
25938;SDS011;13739;51.172;4.466;2022-08-19T04:01:50;38.85;;;16.52;;
25938;SDS011;13739;51.172;4.466;2022-08-19T04:04:17;40.08;;;17.75;;
25938;SDS011;13739;51.172;4.466;2022-08-19T04:06:43;36.80;;;17.08;;
25938;SDS011;13739;51.172;4.466;2022-08-19T04:09:10;34.50;;;16.52;;
25938;SDS011;13739;51.172;4.466;2022-08-19T04:11:39;42.22;;;17.95;;
25938;SDS011;13739;51.172;4.466;2022-08-19T04:14:09;37.92;;;18.13;;
25938;SDS011;13739;51.172;4.466;2022-08-19T04:16:39;39.17;;;16.77;;
25938;SDS011;13739;51.172;4.466;2022-08-19T04:19:08;37.88;;;16.95;;
25938;SDS011;13739;51.172;4.466;2022-08-19T04:21:35;34.47;;;16.00;;
25938;SDS011;13739;51.172;4.466;2022-08-19T04:24:00;35.25;;;15.85;;
25938;SDS011;13739;51.172;4.466;2022-08-19T04:26:31;40.47;;;16.80;;
25938;SDS011;13739;51.172;4.466;2022-08-19T04:28:59;38.40;;;16.85;;
25938;SDS011;13739;51.172;4.466;2022-08-19T04:31:31;34.50;;;15.43;;
25938;SDS011;13739;51.172;4.466;2022-08-19T04:34:00;31.55;;;15.35;;
25938;SDS011;13739;51.172;4.466;2022-08-19T04:36:31;32.63;;;15.18;;
25938;SDS011;13739;51.172;4.466;2022-08-19T04:39:01;39.50;;;14.50;;
25938;SDS011;13739;51.172;4.466;2022-08-19T04:41:29;35.15;;;15.65;;
25938;SDS011;13739;51.172;4.466;2022-08-19T04:44:14;38.45;;;15.65;;
25938;SDS011;13739;51.172;4.466;2022-08-19T04:46:43;32.67;;;14.68;;
25938;SDS011;13739;51.172;4.466;2022-08-19T04:49:09;28.38;;;14.63;;
25938;SDS011;13739;51.172;4.466;2022-08-19T04:51:36;31.85;;;14.93;;
25938;SDS011;13739;51.172;4.466;2022-08-19T04:54:05;31.80;;;14.75;;
25938;SDS011;13739;51.172;4.466;2022-08-19T04:56:30;31.52;;;13.85;;
25938;SDS011;13739;51.172;4.466;2022-08-19T04:58:56;31.65;;;12.48;;
25938;SDS011;13739;51.172;4.466;2022-08-19T05:01:26;32.75;;;14.10;;
25938;SDS011;13739;51.172;4.466;2022-08-19T05:03:57;30.38;;;13.85;;
25938;SDS011;13739;51.172;4.466;2022-08-19T05:06:23;28.10;;;12.60;;
25938;SDS011;13739;51.172;4.466;2022-08-19T05:08:50;29.67;;;12.73;;
25938;SDS011;13739;51.172;4.466;2022-08-19T05:11:17;28.58;;;13.40;;
25938;SDS011;13739;51.172;4.466;2022-08-19T05:13:46;27.60;;;13.10;;
25938;SDS011;13739;51.172;4.466;2022-08-19T05:16:14;28.42;;;12.05;;
25938;SDS011;13739;51.172;4.466;2022-08-19T05:18:43;30.48;;;13.52;;
25938;SDS011;13739;51.172;4.466;2022-08-19T05:21:27;24.83;;;11.55;;
25938;SDS011;13739;51.172;4.466;2022-08-19T05:24:14;32.03;;;13.52;;
25938;SDS011;13739;51.172;4.466;2022-08-19T05:26:42;24.90;;;11.95;;
25938;SDS011;13739;51.172;4.466;2022-08-19T05:29:11;26.65;;;12.95;;
25938;SDS011;13739;51.172;4.466;2022-08-19T05:31:41;25.48;;;12.50;;
25938;SDS011;13739;51.172;4.466;2022-08-19T05:34:07;29.45;;;13.05;;
25938;SDS011;13739;51.172;4.466;2022-08-19T05:36:35;26.10;;;12.07;;
25938;SDS011;13739;51.172;4.466;2022-08-19T05:39:04;29.25;;;12.15;;
25938;SDS011;13739;51.172;4.466;2022-08-19T05:41:30;24.60;;;11.93;;
25938;SDS011;13739;51.172;4.466;2022-08-19T05:43:56;31.40;;;12.27;;
25938;SDS011;13739;51.172;4.466;2022-08-19T05:46:22;27.48;;;11.13;;
25938;SDS011;13739;51.172;4.466;2022-08-19T05:48:48;33.80;;;11.95;;
25938;SDS011;13739;51.172;4.466;2022-08-19T05:51:14;26.38;;;11.27;;
25938;SDS011;13739;51.172;4.466;2022-08-19T05:53:41;26.02;;;11.00;;
25938;SDS011;13739;51.172;4.466;2022-08-19T05:56:07;23.80;;;11.43;;
25938;SDS011;13739;51.172;4.466;2022-08-19T05:58:36;25.85;;;12.07;;
25938;SDS011;13739;51.172;4.466;2022-08-19T06:01:02;20.67;;;10.43;;
25938;SDS011;13739;51.172;4.466;2022-08-19T06:03:35;23.50;;;11.15;;
25938;SDS011;13739;51.172;4.466;2022-08-19T06:06:03;29.90;;;11.30;;
25938;SDS011;13739;51.172;4.466;2022-08-19T06:08:30;23.90;;;10.18;;
25938;SDS011;13739;51.172;4.466;2022-08-19T06:10:56;18.27;;;9.38;;
25938;SDS011;13739;51.172;4.466;2022-08-19T06:13:22;24.75;;;10.35;;
25938;SDS011;13739;51.172;4.466;2022-08-19T06:15:49;20.77;;;9.65;;
25938;SDS011;13739;51.172;4.466;2022-08-19T06:18:15;20.70;;;9.48;;
25938;SDS011;13739;51.172;4.466;2022-08-19T06:20:41;23.48;;;9.30;;
25938;SDS011;13739;51.172;4.466;2022-08-19T06:23:08;21.95;;;10.25;;
25938;SDS011;13739;51.172;4.466;2022-08-19T06:25:34;17.73;;;9.05;;
25938;SDS011;13739;51.172;4.466;2022-08-19T06:28:00;21.45;;;9.63;;
25938;SDS011;13739;51.172;4.466;2022-08-19T06:30:26;17.05;;;8.90;;
25938;SDS011;13739;51.172;4.466;2022-08-19T06:32:52;22.60;;;9.77;;
25938;SDS011;13739;51.172;4.466;2022-08-19T06:35:18;20.20;;;10.15;;
25938;SDS011;13739;51.172;4.466;2022-08-19T06:37:43;17.00;;;8.95;;
25938;SDS011;13739;51.172;4.466;2022-08-19T06:40:10;21.02;;;9.18;;
25938;SDS011;13739;51.172;4.466;2022-08-19T06:42:37;22.25;;;9.38;;
25938;SDS011;13739;51.172;4.466;2022-08-19T06:45:04;14.38;;;8.30;;
25938;SDS011;13739;51.172;4.466;2022-08-19T06:47:32;18.48;;;9.05;;
25938;SDS011;13739;51.172;4.466;2022-08-19T06:49:58;24.05;;;9.05;;
25938;SDS011;13739;51.172;4.466;2022-08-19T06:52:29;19.80;;;8.27;;
25938;SDS011;13739;51.172;4.466;2022-08-19T06:54:55;18.70;;;9.00;;
25938;SDS011;13739;51.172;4.466;2022-08-19T06:57:21;19.55;;;8.60;;
25938;SDS011;13739;51.172;4.466;2022-08-19T06:59:48;24.38;;;8.85;;
25938;SDS011;13739;51.172;4.466;2022-08-19T07:02:14;19.92;;;8.98;;
25938;SDS011;13739;51.172;4.466;2022-08-19T07:04:40;22.73;;;9.50;;
25938;SDS011;13739;51.172;4.466;2022-08-19T07:07:07;23.13;;;8.95;;
25938;SDS011;13739;51.172;4.466;2022-08-19T07:09:37;18.38;;;9.07;;
25938;SDS011;13739;51.172;4.466;2022-08-19T07:12:06;19.90;;;8.88;;
25938;SDS011;13739;51.172;4.466;2022-08-19T07:14:34;17.95;;;8.43;;
25938;SDS011;13739;51.172;4.466;2022-08-19T07:17:02;18.65;;;9.57;;
25938;SDS011;13739;51.172;4.466;2022-08-19T07:19:30;20.63;;;8.07;;
25938;SDS011;13739;51.172;4.466;2022-08-19T07:21:57;17.17;;;8.55;;
25938;SDS011;13739;51.172;4.466;2022-08-19T07:24:26;20.08;;;8.77;;
25938;SDS011;13739;51.172;4.466;2022-08-19T07:26:53;16.05;;;8.32;;
25938;SDS011;13739;51.172;4.466;2022-08-19T07:29:21;17.13;;;8.57;;
25938;SDS011;13739;51.172;4.466;2022-08-19T07:31:49;19.92;;;8.52;;
25938;SDS011;13739;51.172;4.466;2022-08-19T07:34:16;19.23;;;8.85;;
25938;SDS011;13739;51.172;4.466;2022-08-19T07:36:42;18.40;;;8.93;;
25938;SDS011;13739;51.172;4.466;2022-08-19T07:39:11;21.05;;;8.43;;
25938;SDS011;13739;51.172;4.466;2022-08-19T07:41:39;23.50;;;8.23;;
25938;SDS011;13739;51.172;4.466;2022-08-19T07:44:06;18.35;;;8.32;;
25938;SDS011;13739;51.172;4.466;2022-08-19T07:46:34;14.50;;;7.65;;
25938;SDS011;13739;51.172;4.466;2022-08-19T07:49:02;16.48;;;7.50;;
25938;SDS011;13739;51.172;4.466;2022-08-19T07:51:29;18.23;;;8.15;;
25938;SDS011;13739;51.172;4.466;2022-08-19T07:53:55;18.83;;;8.80;;
25938;SDS011;13739;51.172;4.466;2022-08-19T07:56:22;17.50;;;8.38;;
25938;SDS011;13739;51.172;4.466;2022-08-19T07:58:48;17.90;;;7.85;;
25938;SDS011;13739;51.172;4.466;2022-08-19T08:01:18;18.25;;;7.95;;
25938;SDS011;13739;51.172;4.466;2022-08-19T08:03:48;15.75;;;7.88;;
25938;SDS011;13739;51.172;4.466;2022-08-19T08:06:33;13.82;;;7.47;;
25938;SDS011;13739;51.172;4.466;2022-08-19T08:09:19;15.38;;;7.80;;
25938;SDS011;13739;51.172;4.466;2022-08-19T08:14:20;13.73;;;6.65;;
25938;SDS011;13739;51.172;4.466;2022-08-19T08:16:51;14.32;;;7.35;;
25938;SDS011;13739;51.172;4.466;2022-08-19T08:19:21;16.92;;;6.93;;
25938;SDS011;13739;51.172;4.466;2022-08-19T08:21:49;14.88;;;7.40;;
25938;SDS011;13739;51.172;4.466;2022-08-19T08:24:16;12.30;;;6.63;;
25938;SDS011;13739;51.172;4.466;2022-08-19T08:26:42;13.50;;;6.20;;
25938;SDS011;13739;51.172;4.466;2022-08-19T08:29:11;14.20;;;7.13;;
25938;SDS011;13739;51.172;4.466;2022-08-19T08:31:41;14.20;;;6.68;;
25938;SDS011;13739;51.172;4.466;2022-08-19T08:34:08;13.75;;;6.65;;
25938;SDS011;13739;51.172;4.466;2022-08-19T08:36:38;11.98;;;6.75;;
25938;SDS011;13739;51.172;4.466;2022-08-19T08:39:06;11.93;;;6.22;;
25938;SDS011;13739;51.172;4.466;2022-08-19T08:41:58;10.95;;;5.85;;
25938;SDS011;13739;51.172;4.466;2022-08-19T08:47:17;13.48;;;6.43;;
25938;SDS011;13739;51.172;4.466;2022-08-19T08:52:25;10.98;;;6.32;;
25938;SDS011;13739;51.172;4.466;2022-08-19T08:54:57;9.93;;;5.43;;
25938;SDS011;13739;51.172;4.466;2022-08-19T08:57:36;13.00;;;6.25;;
25938;SDS011;13739;51.172;4.466;2022-08-19T09:00:10;12.00;;;6.07;;
25938;SDS011;13739;51.172;4.466;2022-08-19T09:02:42;11.32;;;6.53;;
25938;SDS011;13739;51.172;4.466;2022-08-19T09:05:08;13.95;;;6.18;;
25938;SDS011;13739;51.172;4.466;2022-08-19T09:07:52;11.45;;;6.15;;
25938;SDS011;13739;51.172;4.466;2022-08-19T09:11:12;13.95;;;6.03;;
25938;SDS011;13739;51.172;4.466;2022-08-19T09:16:16;12.10;;;5.60;;
25938;SDS011;13739;51.172;4.466;2022-08-19T09:18:47;12.32;;;5.80;;
25938;SDS011;13739;51.172;4.466;2022-08-19T09:21:17;10.90;;;5.80;;
25938;SDS011;13739;51.172;4.466;2022-08-19T09:23:43;12.43;;;6.10;;
25938;SDS011;13739;51.172;4.466;2022-08-19T09:26:13;16.55;;;6.13;;
25938;SDS011;13739;51.172;4.466;2022-08-19T09:28:40;9.85;;;5.38;;
25938;SDS011;13739;51.172;4.466;2022-08-19T09:31:08;16.02;;;6.82;;
25938;SDS011;13739;51.172;4.466;2022-08-19T09:33:39;12.13;;;6.00;;
25938;SDS011;13739;51.172;4.466;2022-08-19T09:36:06;11.85;;;6.22;;
25938;SDS011;13739;51.172;4.466;2022-08-19T09:38:34;12.50;;;6.18;;
25938;SDS011;13739;51.172;4.466;2022-08-19T09:41:02;11.98;;;5.47;;
25938;SDS011;13739;51.172;4.466;2022-08-19T09:43:32;8.70;;;5.18;;
25938;SDS011;13739;51.172;4.466;2022-08-19T09:46:01;10.38;;;5.45;;
25938;SDS011;13739;51.172;4.466;2022-08-19T09:48:29;12.88;;;6.40;;
25938;SDS011;13739;51.172;4.466;2022-08-19T09:50:55;17.55;;;7.28;;
25938;SDS011;13739;51.172;4.466;2022-08-19T09:53:31;16.80;;;7.03;;
25938;SDS011;13739;51.172;4.466;2022-08-19T09:55:57;14.00;;;6.65;;
25938;SDS011;13739;51.172;4.466;2022-08-19T09:58:23;16.60;;;7.45;;
25938;SDS011;13739;51.172;4.466;2022-08-19T10:00:52;11.73;;;6.65;;
25938;SDS011;13739;51.172;4.466;2022-08-19T10:03:21;15.75;;;7.22;;
25938;SDS011;13739;51.172;4.466;2022-08-19T10:05:47;15.77;;;6.55;;
25938;SDS011;13739;51.172;4.466;2022-08-19T10:08:13;16.00;;;7.50;;
25938;SDS011;13739;51.172;4.466;2022-08-19T10:10:42;13.45;;;7.20;;
25938;SDS011;13739;51.172;4.466;2022-08-19T10:13:09;14.68;;;7.07;;
25938;SDS011;13739;51.172;4.466;2022-08-19T10:15:35;14.75;;;7.18;;
25938;SDS011;13739;51.172;4.466;2022-08-19T10:18:04;14.38;;;7.45;;
25938;SDS011;13739;51.172;4.466;2022-08-19T10:20:30;15.55;;;6.90;;
25938;SDS011;13739;51.172;4.466;2022-08-19T10:22:56;12.10;;;6.38;;
25938;SDS011;13739;51.172;4.466;2022-08-19T10:25:24;13.65;;;6.47;;
25938;SDS011;13739;51.172;4.466;2022-08-19T10:27:51;14.23;;;6.82;;
25938;SDS011;13739;51.172;4.466;2022-08-19T10:30:17;14.32;;;7.05;;
25938;SDS011;13739;51.172;4.466;2022-08-19T10:32:43;14.80;;;6.90;;
25938;SDS011;13739;51.172;4.466;2022-08-19T10:35:10;11.95;;;6.28;;
25938;SDS011;13739;51.172;4.466;2022-08-19T10:37:38;16.02;;;6.80;;
25938;SDS011;13739;51.172;4.466;2022-08-19T10:40:04;14.30;;;6.97;;
25938;SDS011;13739;51.172;4.466;2022-08-19T10:42:32;17.15;;;6.38;;
25938;SDS011;13739;51.172;4.466;2022-08-19T10:44:59;14.73;;;6.95;;
25938;SDS011;13739;51.172;4.466;2022-08-19T10:47:25;14.25;;;6.45;;
25938;SDS011;13739;51.172;4.466;2022-08-19T10:49:51;13.95;;;6.45;;
25938;SDS011;13739;51.172;4.466;2022-08-19T10:55:05;11.57;;;6.07;;
25938;SDS011;13739;51.172;4.466;2022-08-19T10:57:50;15.35;;;6.43;;
25938;SDS011;13739;51.172;4.466;2022-08-19T11:00:17;11.65;;;6.25;;
25938;SDS011;13739;51.172;4.466;2022-08-19T11:02:44;12.32;;;6.30;;
25938;SDS011;13739;51.172;4.466;2022-08-19T11:05:11;13.02;;;6.05;;
25938;SDS011;13739;51.172;4.466;2022-08-19T11:07:40;14.27;;;7.30;;
25938;SDS011;13739;51.172;4.466;2022-08-19T11:10:06;12.77;;;6.35;;
25938;SDS011;13739;51.172;4.466;2022-08-19T11:12:36;12.88;;;6.35;;
25938;SDS011;13739;51.172;4.466;2022-08-19T11:15:04;16.52;;;6.60;;
25938;SDS011;13739;51.172;4.466;2022-08-19T11:17:35;13.88;;;6.78;;
25938;SDS011;13739;51.172;4.466;2022-08-19T11:20:05;12.10;;;6.10;;
25938;SDS011;13739;51.172;4.466;2022-08-19T11:22:31;11.15;;;6.25;;
25938;SDS011;13739;51.172;4.466;2022-08-19T11:24:57;11.65;;;6.22;;
25938;SDS011;13739;51.172;4.466;2022-08-19T11:27:22;9.77;;;5.85;;
25938;SDS011;13739;51.172;4.466;2022-08-19T11:29:48;11.30;;;5.43;;
25938;SDS011;13739;51.172;4.466;2022-08-19T11:32:14;8.63;;;4.90;;
25938;SDS011;13739;51.172;4.466;2022-08-19T11:34:40;10.38;;;6.28;;
25938;SDS011;13739;51.172;4.466;2022-08-19T11:37:06;11.35;;;5.93;;
25938;SDS011;13739;51.172;4.466;2022-08-19T11:39:33;8.93;;;4.90;;
25938;SDS011;13739;51.172;4.466;2022-08-19T11:42:01;11.23;;;5.00;;
25938;SDS011;13739;51.172;4.466;2022-08-19T11:44:48;8.82;;;4.53;;
25938;SDS011;13739;51.172;4.466;2022-08-19T11:47:14;8.27;;;4.90;;
25938;SDS011;13739;51.172;4.466;2022-08-19T11:49:39;10.98;;;5.05;;
25938;SDS011;13739;51.172;4.466;2022-08-19T11:52:05;8.68;;;4.28;;
25938;SDS011;13739;51.172;4.466;2022-08-19T11:54:31;7.22;;;4.28;;
25938;SDS011;13739;51.172;4.466;2022-08-19T11:56:57;9.85;;;4.80;;
25938;SDS011;13739;51.172;4.466;2022-08-19T11:59:22;10.95;;;4.88;;
25938;SDS011;13739;51.172;4.466;2022-08-19T12:01:48;7.65;;;3.92;;
25938;SDS011;13739;51.172;4.466;2022-08-19T12:04:14;8.95;;;3.70;;
25938;SDS011;13739;51.172;4.466;2022-08-19T12:06:40;9.27;;;4.15;;
25938;SDS011;13739;51.172;4.466;2022-08-19T12:09:07;9.60;;;3.40;;
25938;SDS011;13739;51.172;4.466;2022-08-19T12:11:34;6.38;;;4.03;;
25938;SDS011;13739;51.172;4.466;2022-08-19T12:14:02;7.93;;;3.80;;
25938;SDS011;13739;51.172;4.466;2022-08-19T12:16:28;5.80;;;3.95;;
25938;SDS011;13739;51.172;4.466;2022-08-19T12:18:56;5.57;;;3.35;;
25938;SDS011;13739;51.172;4.466;2022-08-19T12:21:25;6.65;;;2.78;;
25938;SDS011;13739;51.172;4.466;2022-08-19T12:23:53;4.82;;;2.70;;
25938;SDS011;13739;51.172;4.466;2022-08-19T12:26:21;4.22;;;2.50;;
25938;SDS011;13739;51.172;4.466;2022-08-19T12:28:47;5.00;;;2.45;;
25938;SDS011;13739;51.172;4.466;2022-08-19T12:31:13;3.08;;;2.03;;
25938;SDS011;13739;51.172;4.466;2022-08-19T12:33:40;4.57;;;2.17;;
25938;SDS011;13739;51.172;4.466;2022-08-19T12:36:07;2.92;;;1.80;;
25938;SDS011;13739;51.172;4.466;2022-08-19T12:38:36;3.20;;;2.10;;
25938;SDS011;13739;51.172;4.466;2022-08-19T12:41:03;2.58;;;1.83;;
25938;SDS011;13739;51.172;4.466;2022-08-19T12:43:30;3.20;;;2.00;;
25938;SDS011;13739;51.172;4.466;2022-08-19T12:45:55;3.80;;;2.42;;
25938;SDS011;13739;51.172;4.466;2022-08-19T12:48:21;3.15;;;2.17;;
25938;SDS011;13739;51.172;4.466;2022-08-19T12:50:47;3.95;;;2.20;;
25938;SDS011;13739;51.172;4.466;2022-08-19T12:53:13;4.45;;;2.30;;
25938;SDS011;13739;51.172;4.466;2022-08-19T12:55:39;4.72;;;3.03;;
25938;SDS011;13739;51.172;4.466;2022-08-19T12:58:05;4.38;;;2.38;;
25938;SDS011;13739;51.172;4.466;2022-08-19T13:00:31;3.97;;;2.20;;
25938;SDS011;13739;51.172;4.466;2022-08-19T13:02:57;3.05;;;2.10;;
25938;SDS011;13739;51.172;4.466;2022-08-19T13:05:25;3.97;;;1.90;;
25938;SDS011;13739;51.172;4.466;2022-08-19T13:07:52;2.63;;;1.85;;
25938;SDS011;13739;51.172;4.466;2022-08-19T13:10:23;4.65;;;1.88;;
25938;SDS011;13739;51.172;4.466;2022-08-19T13:12:53;4.18;;;2.17;;
25938;SDS011;13739;51.172;4.466;2022-08-19T13:15:19;4.72;;;2.53;;
25938;SDS011;13739;51.172;4.466;2022-08-19T13:17:47;3.08;;;2.00;;
25938;SDS011;13739;51.172;4.466;2022-08-19T13:20:15;3.75;;;1.90;;
25938;SDS011;13739;51.172;4.466;2022-08-19T13:22:44;4.20;;;1.90;;
25938;SDS011;13739;51.172;4.466;2022-08-19T13:25:11;2.10;;;1.52;;
25938;SDS011;13739;51.172;4.466;2022-08-19T13:27:37;4.80;;;1.80;;
25938;SDS011;13739;51.172;4.466;2022-08-19T13:30:04;4.25;;;2.05;;
25938;SDS011;13739;51.172;4.466;2022-08-19T13:32:50;3.85;;;2.58;;
25938;SDS011;13739;51.172;4.466;2022-08-19T13:35:34;3.47;;;2.47;;
25938;SDS011;13739;51.172;4.466;2022-08-19T13:38:00;4.80;;;2.40;;
25938;SDS011;13739;51.172;4.466;2022-08-19T13:40:31;2.53;;;1.73;;
25938;SDS011;13739;51.172;4.466;2022-08-19T13:42:58;3.95;;;1.70;;
25938;SDS011;13739;51.172;4.466;2022-08-19T13:45:26;3.65;;;1.58;;
25938;SDS011;13739;51.172;4.466;2022-08-19T13:47:54;2.60;;;1.60;;
25938;SDS011;13739;51.172;4.466;2022-08-19T13:50:26;3.72;;;1.55;;
25938;SDS011;13739;51.172;4.466;2022-08-19T13:52:54;3.83;;;2.47;;
25938;SDS011;13739;51.172;4.466;2022-08-19T13:55:21;4.55;;;2.20;;
25938;SDS011;13739;51.172;4.466;2022-08-19T13:57:58;3.38;;;2.30;;
25938;SDS011;13739;51.172;4.466;2022-08-19T14:00:26;3.03;;;1.88;;
25938;SDS011;13739;51.172;4.466;2022-08-19T14:02:55;3.95;;;2.72;;
25938;SDS011;13739;51.172;4.466;2022-08-19T14:05:22;3.97;;;2.60;;
25938;SDS011;13739;51.172;4.466;2022-08-19T14:07:49;4.80;;;2.70;;
25938;SDS011;13739;51.172;4.466;2022-08-19T14:10:15;6.05;;;2.60;;
25938;SDS011;13739;51.172;4.466;2022-08-19T14:12:42;3.45;;;2.50;;
25938;SDS011;13739;51.172;4.466;2022-08-19T14:15:09;3.15;;;2.45;;
25938;SDS011;13739;51.172;4.466;2022-08-19T14:17:39;4.82;;;3.20;;
25938;SDS011;13739;51.172;4.466;2022-08-19T14:20:06;5.22;;;2.85;;
25938;SDS011;13739;51.172;4.466;2022-08-19T14:22:35;5.40;;;2.80;;
25938;SDS011;13739;51.172;4.466;2022-08-19T14:25:02;5.25;;;2.40;;
25938;SDS011;13739;51.172;4.466;2022-08-19T14:27:29;4.30;;;2.38;;
25938;SDS011;13739;51.172;4.466;2022-08-19T14:29:57;4.40;;;2.40;;
25938;SDS011;13739;51.172;4.466;2022-08-19T14:32:23;4.60;;;2.20;;
25938;SDS011;13739;51.172;4.466;2022-08-19T14:34:52;5.15;;;2.53;;
25938;SDS011;13739;51.172;4.466;2022-08-19T14:37:18;2.50;;;1.80;;
25938;SDS011;13739;51.172;4.466;2022-08-19T14:39:44;3.88;;;2.08;;
25938;SDS011;13739;51.172;4.466;2022-08-19T14:42:10;4.85;;;2.20;;
25938;SDS011;13739;51.172;4.466;2022-08-19T14:44:36;3.17;;;2.15;;
25938;SDS011;13739;51.172;4.466;2022-08-19T14:47:02;2.42;;;1.63;;
25938;SDS011;13739;51.172;4.466;2022-08-19T14:49:28;2.65;;;1.80;;
25938;SDS011;13739;51.172;4.466;2022-08-19T14:51:54;1.95;;;1.40;;